createdAt,value
2023-05-20T00:02:33.767Z,20.63
2023-05-20T00:05:35.922Z,20.66
2023-05-20T00:08:37.912Z,20.66
2023-05-20T00:11:40.164Z,20.69
2023-05-20T00:14:42.246Z,20.77
2023-05-20T00:17:44.278Z,20.74
2023-05-20T00:20:46.470Z,20.73
2023-05-20T00:23:48.683Z,20.70
2023-05-20T00:26:51.021Z,20.69
2023-05-20T00:29:53.202Z,20.70
2023-05-20T00:32:55.432Z,20.67
2023-05-20T00:35:57.693Z,20.63
2023-05-20T00:38:59.850Z,20.56
2023-05-20T00:42:03.651Z,20.55
2023-05-20T00:45:06.425Z,20.50
2023-05-20T00:48:09.898Z,20.46
2023-05-20T00:51:14.311Z,20.46
2023-05-20T00:54:16.854Z,20.44
2023-05-20T00:57:20.091Z,20.44
2023-05-20T01:00:22.273Z,20.44
2023-05-20T01:03:24.549Z,20.45
2023-05-20T01:06:28.368Z,20.42
2023-05-20T01:09:32.358Z,20.45
2023-05-20T01:12:39.497Z,20.45
2023-05-20T01:15:44.003Z,20.44
2023-05-20T01:18:48.842Z,20.46
2023-05-20T01:21:54.367Z,20.40
2023-05-20T01:24:57.403Z,20.37
2023-05-20T01:28:01.853Z,20.40
2023-05-20T01:31:10.900Z,20.39
2023-05-20T01:34:15.728Z,20.34
2023-05-20T01:37:19.650Z,20.29
2023-05-20T01:40:23.777Z,20.32
2023-05-20T01:43:27.937Z,20.29
2023-05-20T01:46:34.665Z,20.26
2023-05-20T01:49:37.827Z,20.30
2023-05-20T01:52:40.539Z,20.28
2023-05-20T01:55:42.656Z,20.30
2023-05-20T01:58:44.779Z,20.23
2023-05-20T02:01:46.936Z,20.20
2023-05-20T02:04:52.171Z,20.24
2023-05-20T02:07:54.293Z,20.27
2023-05-20T02:10:56.478Z,20.26
2023-05-20T02:13:58.560Z,20.26
2023-05-20T02:17:01.289Z,20.24
2023-05-20T02:20:06.400Z,20.25
2023-05-20T02:23:09.557Z,20.23
2023-05-20T02:26:12.181Z,20.25
2023-05-20T02:29:14.202Z,20.23
2023-05-20T02:32:16.775Z,20.23
2023-05-20T02:35:18.740Z,20.22
2023-05-20T02:38:22.107Z,20.20
2023-05-20T02:41:24.299Z,20.14
2023-05-20T02:44:26.478Z,20.20
2023-05-20T02:47:30.170Z,20.23
2023-05-20T02:50:32.246Z,20.20
2023-05-20T02:53:34.341Z,20.16
2023-05-20T02:56:36.617Z,20.18
2023-05-20T02:59:39.171Z,20.20
2023-05-20T03:02:41.320Z,20.19
2023-05-20T03:05:46.104Z,20.24
2023-05-20T03:08:48.232Z,20.21
2023-05-20T03:11:50.544Z,20.21
2023-05-20T03:14:55.579Z,20.18
2023-05-20T03:17:58.202Z,20.19
2023-05-20T03:21:00.535Z,20.26
2023-05-20T03:24:02.737Z,20.27
2023-05-20T03:27:05.049Z,20.25
2023-05-20T03:30:09.796Z,20.30
2023-05-20T03:33:12.109Z,20.31
2023-05-20T03:36:14.534Z,20.24
2023-05-20T03:39:16.679Z,20.26
2023-05-20T03:42:20.554Z,20.24
2023-05-20T03:45:22.856Z,20.33
2023-05-20T03:48:35.107Z,20.36
2023-05-20T03:51:37.308Z,20.38
2023-05-20T03:54:44.821Z,20.38
2023-05-20T03:57:47.268Z,20.40
2023-05-20T04:00:49.915Z,20.46
2023-05-20T04:03:52.183Z,20.53
2023-05-20T04:06:54.707Z,20.61
2023-05-20T04:09:56.892Z,20.66
2023-05-20T04:12:59.100Z,20.68
2023-05-20T04:16:02.110Z,20.75
2023-05-20T04:19:05.366Z,20.78
2023-05-20T04:22:07.636Z,20.77
2023-05-20T04:25:10.096Z,20.77
2023-05-20T04:28:14.251Z,20.84
2023-05-20T04:31:17.608Z,20.84
2023-05-20T04:34:20.499Z,20.84
2023-05-20T04:37:22.761Z,20.87
2023-05-20T04:40:25.454Z,20.87
2023-05-20T04:43:30.408Z,20.90
2023-05-20T04:46:34.107Z,20.91
2023-05-20T04:49:36.943Z,20.92
2023-05-20T04:52:39.721Z,21.06
2023-05-20T04:55:42.003Z,21.11
2023-05-20T04:58:44.401Z,21.11
2023-05-20T05:01:46.454Z,21.14
2023-05-20T05:04:49.451Z,21.16
2023-05-20T05:07:55.301Z,21.14
2023-05-20T05:11:10.495Z,21.16
2023-05-20T05:14:16.008Z,21.16
2023-05-20T05:17:20.485Z,21.22
2023-05-20T05:20:22.955Z,21.31
2023-05-20T05:23:25.432Z,21.36
2023-05-20T05:26:28.351Z,21.44
2023-05-20T05:29:31.093Z,21.48
2023-05-20T05:32:34.038Z,21.65
2023-05-20T05:35:36.430Z,21.70
2023-05-20T05:38:39.197Z,21.73
2023-05-20T05:41:41.987Z,21.78
2023-05-20T05:44:44.841Z,21.91
2023-05-20T05:47:47.043Z,21.87
2023-05-20T05:50:50.068Z,21.87
2023-05-20T05:53:53.918Z,21.88
2023-05-20T05:56:59.254Z,21.97
2023-05-20T06:00:04.895Z,22.32
2023-05-20T06:03:20.146Z,22.53
2023-05-20T06:06:23.637Z,22.40
2023-05-20T06:09:25.755Z,22.41
2023-05-20T06:12:28.392Z,23.24
2023-05-20T06:15:30.522Z,25.26
2023-05-20T06:18:32.896Z,26.36
2023-05-20T06:21:39.272Z,27.03
2023-05-20T06:24:41.660Z,26.05
2023-05-20T06:27:43.817Z,25.20
2023-05-20T06:30:51.330Z,24.84
2023-05-20T06:33:53.445Z,24.53
2023-05-20T06:36:57.478Z,23.83
2023-05-20T06:39:59.530Z,23.12
2023-05-20T06:43:01.974Z,22.73
2023-05-20T06:46:36.272Z,22.42
2023-05-20T06:49:47.502Z,22.25
2023-05-20T06:52:52.690Z,22.23
2023-05-20T06:55:58.042Z,22.37
2023-05-20T06:59:01.371Z,22.50
2023-05-20T07:02:05.874Z,23.07
2023-05-20T07:05:10.947Z,23.92
2023-05-20T07:08:13.111Z,24.44
2023-05-20T07:11:16.328Z,24.85
2023-05-20T07:14:20.126Z,25.27
2023-05-20T07:17:30.316Z,25.43
2023-05-20T07:20:32.562Z,25.56
2023-05-20T07:23:42.024Z,25.66
2023-05-20T07:26:47.174Z,25.80
2023-05-20T07:29:57.264Z,25.81
2023-05-20T07:33:00.090Z,25.76
2023-05-20T07:36:02.446Z,25.88
2023-05-20T07:39:16.920Z,25.97
2023-05-20T07:42:20.374Z,26.25
2023-05-20T07:45:25.338Z,26.53
2023-05-20T07:48:33.322Z,27.08
2023-05-20T07:51:35.649Z,26.95
2023-05-20T07:54:37.824Z,26.98
2023-05-20T07:57:41.667Z,27.16
2023-05-20T08:00:45.913Z,27.56
2023-05-20T08:03:54.954Z,27.79
2023-05-20T08:06:59.328Z,27.73
2023-05-20T08:10:15.309Z,27.74
2023-05-20T08:13:19.303Z,28.17
2023-05-20T08:16:22.118Z,28.56
2023-05-20T08:19:24.630Z,28.51
2023-05-20T08:22:26.978Z,28.40
2023-05-20T08:25:30.203Z,28.32
2023-05-20T08:28:33.449Z,28.20
2023-05-20T08:31:36.157Z,28.09
2023-05-20T08:34:38.469Z,27.89
2023-05-20T08:37:41.673Z,27.66
2023-05-20T08:40:44.461Z,27.59
2023-05-20T08:43:47.303Z,27.32
2023-05-20T08:46:52.159Z,27.11
2023-05-20T08:49:54.662Z,26.95
2023-05-20T08:52:56.821Z,26.79
2023-05-20T08:56:03.848Z,26.78
2023-05-20T08:59:09.015Z,26.54
2023-05-20T09:02:13.550Z,26.46
2023-05-20T09:05:15.948Z,26.45
2023-05-20T09:08:18.296Z,26.19
2023-05-20T09:11:23.126Z,26.02
2023-05-20T09:14:27.400Z,26.02
2023-05-20T09:17:29.628Z,25.91
2023-05-20T09:20:34.637Z,25.74
2023-05-20T09:23:39.484Z,25.63
2023-05-20T09:26:41.558Z,25.60
2023-05-20T09:29:46.471Z,25.62
2023-05-20T09:33:00.243Z,25.50
2023-05-20T09:36:08.713Z,25.53
2023-05-20T09:39:17.335Z,25.52
2023-05-20T09:42:26.483Z,25.45
2023-05-20T09:45:28.878Z,25.32
2023-05-20T09:48:34.367Z,25.30
2023-05-20T09:51:37.160Z,25.34
2023-05-20T09:54:39.597Z,25.29
2023-05-20T09:57:42.403Z,25.25
2023-05-20T10:00:44.643Z,25.23
2023-05-20T10:03:47.094Z,25.25
2023-05-20T10:07:15.390Z,25.23
2023-05-20T10:10:26.455Z,25.21
2023-05-20T10:13:37.392Z,25.17
2023-05-20T10:17:08.008Z,25.21
2023-05-20T10:20:12.264Z,25.24
2023-05-20T10:23:24.681Z,25.26
2023-05-20T10:26:38.576Z,25.27
2023-05-20T10:29:53.973Z,25.26
2023-05-20T10:33:01.222Z,25.27
2023-05-20T10:36:03.954Z,25.26
2023-05-20T10:39:06.053Z,25.26
2023-05-20T10:42:12.057Z,25.28
2023-05-20T10:45:26.652Z,25.28
2023-05-20T10:48:42.515Z,25.28
2023-05-20T10:51:46.807Z,25.32
2023-05-20T10:54:57.396Z,25.35
2023-05-20T10:58:00.021Z,25.38
2023-05-20T11:01:03.655Z,25.43
2023-05-20T11:04:06.929Z,25.46
2023-05-20T11:07:09.527Z,25.46
2023-05-20T11:10:13.030Z,25.46
2023-05-20T11:13:15.710Z,25.45
2023-05-20T11:16:17.908Z,25.46
2023-05-20T11:19:20.640Z,25.46
2023-05-20T11:22:23.344Z,25.53
2023-05-20T11:25:25.506Z,25.54
2023-05-20T11:28:27.648Z,25.54
2023-05-20T11:31:29.775Z,25.58
2023-05-20T11:34:36.951Z,25.61
2023-05-20T11:37:39.136Z,25.71
2023-05-20T11:40:50.587Z,25.84
2023-05-20T11:44:00.635Z,25.77
2023-05-20T11:47:03.954Z,25.90
2023-05-20T11:50:06.894Z,25.84
2023-05-20T11:53:11.310Z,25.92
2023-05-20T11:56:14.894Z,26.22
2023-05-20T11:59:17.021Z,26.31
2023-05-20T12:02:19.253Z,26.37
2023-05-20T12:05:21.547Z,26.37
2023-05-20T12:08:23.629Z,26.39
2023-05-20T12:11:26.046Z,26.41
2023-05-20T12:14:28.119Z,26.39
2023-05-20T12:17:30.360Z,26.36
2023-05-20T12:20:34.679Z,26.29
2023-05-20T12:23:36.975Z,26.20
2023-05-20T12:26:39.178Z,26.17
2023-05-20T12:29:41.429Z,26.22
2023-05-20T12:32:44.254Z,26.20
2023-05-20T12:35:46.968Z,26.26
2023-05-20T12:38:49.219Z,26.33
2023-05-20T12:41:51.584Z,26.36
2023-05-20T12:44:53.654Z,26.27
2023-05-20T12:47:57.674Z,26.23
2023-05-20T12:51:00.344Z,26.18
2023-05-20T12:54:02.424Z,26.15
2023-05-20T12:57:05.471Z,26.03
2023-05-20T13:00:08.720Z,25.87
2023-05-20T13:03:11.626Z,25.45
2023-05-20T13:06:13.859Z,25.15
2023-05-20T13:09:16.180Z,24.99
2023-05-20T13:12:18.386Z,24.94
2023-05-20T13:15:20.492Z,24.94
2023-05-20T13:18:22.695Z,24.89
2023-05-20T13:21:24.691Z,24.86
2023-05-20T13:24:27.349Z,24.79
2023-05-20T13:27:29.536Z,24.73
2023-05-20T13:30:32.810Z,24.82
2023-05-20T13:33:35.150Z,24.80
2023-05-20T13:36:37.176Z,24.89
2023-05-20T13:39:39.247Z,24.93
2023-05-20T13:42:41.321Z,24.96
2023-05-20T13:45:43.547Z,25.01
2023-05-20T13:48:45.827Z,25.05
2023-05-20T13:51:48.031Z,25.12
2023-05-20T13:55:39.904Z,25.14
2023-05-20T13:58:45.286Z,25.15
2023-05-20T14:01:47.618Z,25.14
2023-05-20T14:04:49.841Z,25.14
2023-05-20T14:07:52.014Z,25.20
2023-05-20T14:10:55.561Z,25.22
2023-05-20T14:14:00.527Z,25.27
2023-05-20T14:17:02.638Z,25.27
2023-05-20T14:20:06.733Z,25.22
2023-05-20T14:23:09.358Z,25.18
2023-05-20T14:26:12.579Z,25.15
2023-05-20T14:29:15.442Z,25.06
2023-05-20T14:32:17.842Z,25.02
2023-05-20T14:35:20.277Z,24.97
2023-05-20T14:38:22.626Z,24.89
2023-05-20T14:41:24.761Z,24.79
2023-05-20T14:44:26.913Z,24.86
2023-05-20T14:47:29.306Z,24.80
2023-05-20T14:50:31.782Z,24.82
2023-05-20T14:53:37.078Z,24.84
2023-05-20T14:56:39.109Z,24.89
2023-05-20T14:59:41.350Z,24.98
2023-05-20T15:02:43.437Z,25.07
2023-05-20T15:05:45.741Z,25.13
2023-05-20T15:08:48.747Z,25.26
2023-05-20T15:11:51.074Z,25.38
2023-05-20T15:14:54.710Z,25.52
2023-05-20T15:17:56.920Z,25.55
2023-05-20T15:21:00.953Z,25.60
2023-05-20T15:24:03.304Z,25.60
2023-05-20T15:27:05.850Z,25.59
2023-05-20T15:30:08.563Z,25.47
2023-05-20T15:33:11.020Z,25.44
2023-05-20T15:36:13.190Z,25.39
2023-05-20T15:39:15.464Z,25.30
2023-05-20T15:42:18.815Z,25.23
2023-05-20T15:45:21.184Z,25.15
2023-05-20T15:48:23.838Z,25.16
2023-05-20T15:51:26.315Z,25.11
2023-05-20T15:54:29.899Z,24.98
2023-05-20T15:57:32.276Z,24.89
2023-05-20T16:00:34.891Z,24.87
2023-05-20T16:03:37.440Z,24.71
2023-05-20T16:06:40.161Z,24.70
2023-05-20T16:09:42.994Z,24.60
2023-05-20T16:12:46.594Z,24.57
2023-05-20T16:15:50.144Z,24.56
2023-05-20T16:18:53.157Z,24.55
2023-05-20T16:21:55.278Z,24.50
2023-05-20T16:24:57.332Z,24.47
2023-05-20T16:28:02.648Z,24.46
2023-05-20T16:31:06.506Z,24.47
2023-05-20T16:34:08.646Z,24.33
2023-05-20T16:37:10.996Z,24.24
2023-05-20T16:40:13.434Z,24.14
2023-05-20T16:43:15.600Z,24.07
2023-05-20T16:46:17.887Z,24.05
2023-05-20T16:49:22.460Z,24.01
2023-05-20T16:52:24.956Z,23.99
2023-05-20T16:55:27.315Z,23.96
2023-05-20T16:58:31.659Z,23.94
2023-05-20T17:01:36.115Z,23.90
2023-05-20T17:04:52.361Z,23.84
2023-05-20T17:08:00.428Z,23.83
2023-05-20T17:11:05.227Z,23.76
2023-05-20T17:14:07.329Z,23.70
2023-05-20T17:17:15.175Z,23.63
2023-05-20T17:20:17.671Z,23.59
2023-05-20T17:23:23.733Z,23.53
2023-05-20T17:26:29.870Z,23.51
2023-05-20T17:29:39.884Z,23.51
2023-05-20T17:32:42.052Z,23.52
2023-05-20T17:35:49.384Z,23.51
2023-05-20T17:38:51.791Z,23.52
2023-05-20T17:41:53.932Z,23.52
2023-05-20T17:44:56.351Z,23.46
2023-05-20T17:47:58.578Z,23.40
2023-05-20T17:54:20.948Z,23.29
2023-05-20T17:57:23.033Z,23.22
2023-05-20T18:00:27.216Z,23.20
2023-05-20T18:03:29.701Z,23.19
2023-05-20T18:06:34.752Z,23.25
2023-05-20T18:09:37.021Z,23.32
2023-05-20T18:13:04.308Z,23.36
2023-05-20T18:16:09.285Z,23.36
2023-05-20T18:19:12.995Z,23.43
2023-05-20T18:22:16.541Z,23.54
2023-05-20T18:25:22.732Z,23.69
2023-05-20T18:28:41.086Z,23.91
2023-05-20T18:31:45.084Z,24.03
2023-05-20T18:34:47.677Z,23.95
2023-05-20T18:37:52.283Z,23.99
2023-05-20T18:40:56.942Z,23.92
2023-05-20T18:43:59.065Z,23.85
2023-05-20T18:47:03.936Z,23.82
2023-05-20T18:50:11.015Z,23.84
2023-05-20T18:53:14.125Z,23.82
2023-05-20T18:56:19.945Z,23.80
2023-05-20T18:59:25.136Z,23.72
2023-05-20T19:02:28.925Z,23.69
2023-05-20T19:05:33.484Z,23.64
2023-05-20T19:08:36.606Z,23.60
2023-05-20T19:11:38.717Z,23.61
2023-05-20T19:14:41.739Z,23.59
2023-05-20T19:17:45.141Z,23.52
2023-05-20T19:20:47.187Z,23.47
2023-05-20T19:23:50.418Z,23.41
2023-05-20T19:26:52.679Z,23.51
2023-05-20T19:30:00.837Z,23.42
2023-05-20T19:33:13.732Z,23.35
2023-05-20T19:36:17.482Z,23.27
2023-05-20T19:39:21.246Z,23.25
2023-05-20T19:42:25.142Z,23.29
2023-05-20T19:45:27.726Z,23.24
2023-05-20T19:48:30.965Z,23.21
2023-05-20T19:51:35.752Z,23.18
2023-05-20T19:54:37.877Z,23.15
2023-05-20T19:57:41.345Z,23.14
2023-05-20T20:00:45.682Z,23.29
2023-05-20T20:03:51.096Z,23.40
2023-05-20T20:06:55.272Z,23.47
2023-05-20T20:09:58.420Z,23.29
2023-05-20T20:13:03.965Z,23.23
2023-05-20T20:16:11.678Z,23.18
2023-05-20T20:19:48.895Z,23.14
2023-05-20T20:23:13.867Z,23.07
2023-05-20T20:26:23.641Z,23.10
2023-05-20T20:29:26.474Z,23.04
2023-05-20T20:32:29.181Z,23.06
2023-05-20T20:35:32.447Z,23.02
2023-05-20T20:38:34.656Z,22.96
2023-05-20T20:41:39.077Z,22.98
2023-05-20T20:44:58.172Z,22.89
2023-05-20T20:48:05.713Z,22.94
2023-05-20T20:51:09.170Z,22.88
2023-05-20T20:54:11.437Z,22.96
2023-05-20T20:57:14.043Z,22.89
2023-05-20T21:00:17.713Z,22.82
2023-05-20T21:03:24.125Z,22.80
2023-05-20T21:06:26.349Z,22.72
2023-05-20T21:09:29.007Z,22.75
2023-05-20T21:12:31.060Z,22.76
2023-05-20T21:15:33.197Z,22.79
2023-05-20T21:18:35.625Z,22.75
2023-05-20T21:21:39.893Z,22.75
2023-05-20T21:24:43.444Z,22.74
2023-05-20T21:27:46.468Z,22.71
2023-05-20T21:30:48.748Z,22.65
2023-05-20T21:33:51.001Z,22.65
2023-05-20T21:36:53.183Z,22.64
2023-05-20T21:39:55.296Z,22.60
2023-05-20T21:42:57.458Z,22.58
2023-05-20T21:45:59.983Z,22.57
2023-05-20T21:49:04.837Z,22.51
2023-05-20T21:52:07.686Z,22.47
2023-05-20T21:55:11.385Z,22.47
2023-05-20T21:58:15.221Z,22.40
2023-05-20T22:01:17.345Z,22.39
2023-05-20T22:04:19.816Z,22.34
2023-05-20T22:07:22.319Z,22.34
2023-05-20T22:10:26.948Z,22.27
2023-05-20T22:13:31.110Z,22.27
2023-05-20T22:16:35.456Z,22.25
2023-05-20T22:19:39.334Z,22.21
2023-05-20T22:22:41.435Z,22.16
2023-05-20T22:25:43.557Z,22.12
2023-05-20T22:28:46.284Z,22.20
2023-05-20T22:31:48.582Z,22.14
2023-05-20T22:34:53.705Z,22.19
2023-05-20T22:37:57.520Z,22.12
2023-05-20T22:40:59.682Z,22.08
2023-05-20T22:44:01.976Z,22.02
2023-05-20T22:47:04.222Z,21.96
2023-05-20T22:50:07.586Z,21.89
2023-05-20T22:53:09.746Z,21.87
2023-05-20T22:56:11.900Z,21.86
2023-05-20T22:59:14.140Z,21.82
2023-05-20T23:02:16.332Z,21.74
2023-05-20T23:05:18.424Z,21.76
2023-05-20T23:08:21.286Z,21.81
2023-05-20T23:11:24.050Z,21.80
2023-05-20T23:14:26.402Z,21.81
2023-05-20T23:17:28.593Z,21.80
2023-05-20T23:20:30.741Z,21.82
2023-05-20T23:23:32.878Z,21.81
2023-05-20T23:26:37.844Z,21.81
2023-05-20T23:29:40.559Z,21.81
2023-05-20T23:32:42.857Z,21.80
2023-05-20T23:35:45.037Z,21.77
2023-05-20T23:38:47.357Z,21.65
2023-05-20T23:41:49.522Z,21.59
2023-05-20T23:44:52.245Z,21.57
2023-05-20T23:47:55.782Z,21.51
2023-05-20T23:50:58.197Z,21.54
2023-05-20T23:54:00.890Z,21.52
2023-05-20T23:57:03.071Z,21.44
